createdAt,value
2024-03-16T00:01:19.986Z,88.07
2024-03-16T00:03:47.233Z,88.39
2024-03-16T00:06:20.572Z,87.72
2024-03-16T00:08:47.607Z,87.35
2024-03-16T00:11:19.065Z,88.14
2024-03-16T00:13:52.300Z,88.00
2024-03-16T00:16:20.871Z,88.45
2024-03-16T00:18:48.122Z,89.01
2024-03-16T00:21:17.695Z,88.54
2024-03-16T00:23:50.123Z,88.42
2024-03-16T00:26:19.840Z,89.10
2024-03-16T00:29:55.538Z,89.36
2024-03-16T00:32:24.517Z,89.60
2024-03-16T00:34:57.639Z,89.52
2024-03-16T00:37:44.418Z,92.18
2024-03-16T00:40:23.948Z,91.68
2024-03-16T00:43:19.302Z,90.58
2024-03-16T00:46:17.753Z,90.84
2024-03-16T00:48:45.638Z,90.49
2024-03-16T00:51:34.761Z,90.46
2024-03-16T00:54:09.022Z,90.35
2024-03-16T00:56:49.257Z,90.62
2024-03-16T00:59:31.668Z,90.96
2024-03-16T01:02:00.564Z,91.00
2024-03-16T01:04:36.383Z,90.25
2024-03-16T01:07:12.422Z,90.24
2024-03-16T01:10:03.347Z,90.46
2024-03-16T01:12:33.589Z,90.10
2024-03-16T01:15:22.788Z,90.89
2024-03-16T01:18:12.061Z,89.38
2024-03-16T01:20:54.475Z,88.68
2024-03-16T01:23:23.062Z,90.27
2024-03-16T01:25:56.151Z,90.16
2024-03-16T01:28:45.095Z,90.26
2024-03-16T01:31:14.441Z,90.11
2024-03-16T01:33:42.204Z,89.79
2024-03-16T01:36:23.262Z,89.88
2024-03-16T01:38:50.685Z,89.69
2024-03-16T01:41:18.464Z,89.13
2024-03-16T01:43:50.165Z,87.46
2024-03-16T01:46:21.458Z,86.77
2024-03-16T02:01:53.789Z,88.61
2024-03-16T02:04:20.950Z,89.02
2024-03-16T02:06:50.714Z,89.30
2024-03-16T02:09:18.010Z,89.77
2024-03-16T02:11:44.937Z,90.11
2024-03-16T02:14:12.326Z,90.45
2024-03-16T02:16:46.521Z,89.96
2024-03-16T02:19:13.639Z,90.94
2024-03-16T02:21:40.632Z,91.41
2024-03-16T02:24:07.977Z,91.61
2024-03-16T02:26:35.462Z,92.09
2024-03-16T02:29:03.815Z,91.94
2024-03-16T02:31:31.150Z,92.47
2024-03-16T02:33:59.872Z,92.51
2024-03-16T02:36:30.137Z,91.67
2024-03-16T02:38:57.236Z,91.93
2024-03-16T02:41:24.247Z,92.45
2024-03-16T02:43:51.356Z,91.11
2024-03-16T02:46:18.631Z,92.19
2024-03-16T02:48:46.894Z,92.43
2024-03-16T02:51:13.923Z,92.76
2024-03-16T02:53:41.226Z,92.07
2024-03-16T02:56:08.253Z,92.80
2024-03-16T02:58:35.617Z,92.78
2024-03-16T03:01:02.914Z,92.30
2024-03-16T03:03:31.002Z,92.92
2024-03-16T03:05:58.131Z,91.93
2024-03-16T03:08:25.201Z,93.65
2024-03-16T03:10:52.262Z,91.23
2024-03-16T03:13:19.324Z,90.42
2024-03-16T03:15:50.159Z,90.98
2024-03-16T03:18:17.482Z,90.27
2024-03-16T03:20:46.470Z,90.82
2024-03-16T03:23:13.512Z,89.92
2024-03-16T03:25:41.272Z,91.24
2024-03-16T03:28:08.407Z,90.31
2024-03-16T03:30:35.977Z,90.73
2024-03-16T03:33:03.120Z,90.55
2024-03-16T03:35:33.117Z,90.89
2024-03-16T03:38:00.178Z,91.88
2024-03-16T03:40:27.424Z,91.68
2024-03-16T03:42:57.349Z,91.11
2024-03-16T03:45:39.651Z,91.31
2024-03-16T03:48:25.026Z,91.58
2024-03-16T03:50:53.153Z,91.98
2024-03-16T03:53:21.657Z,92.62
2024-03-16T03:55:49.160Z,92.87
2024-03-16T03:58:16.343Z,92.57
2024-03-16T04:15:03.096Z,90.71
2024-03-16T04:17:30.401Z,90.78
2024-03-16T04:19:57.356Z,91.31
2024-03-16T04:22:24.729Z,90.72
2024-03-16T04:24:51.790Z,90.78
2024-03-16T04:27:18.847Z,90.54
2024-03-16T04:29:45.968Z,91.04
2024-03-16T04:32:13.057Z,92.16
2024-03-16T04:34:41.413Z,92.07
2024-03-16T04:37:10.196Z,93.02
2024-03-16T04:39:37.617Z,92.80
2024-03-16T04:42:04.841Z,93.21
2024-03-16T04:44:32.290Z,93.32
2024-03-16T04:46:59.820Z,93.45
2024-03-16T04:49:26.790Z,92.96
2024-03-16T04:51:53.894Z,92.38
2024-03-16T04:54:20.828Z,92.13
2024-03-16T04:56:48.329Z,92.21
2024-03-16T04:59:15.431Z,92.68
2024-03-16T05:01:43.187Z,93.48
2024-03-16T05:04:10.547Z,92.78
2024-03-16T05:06:37.724Z,92.90
2024-03-16T05:09:07.761Z,90.56
2024-03-16T05:11:34.864Z,89.68
2024-03-16T05:14:03.812Z,88.75
2024-03-16T05:16:30.914Z,88.73
2024-03-16T05:18:58.803Z,87.23
2024-03-16T05:21:26.023Z,85.80
2024-03-16T05:23:53.490Z,84.48
2024-03-16T05:26:20.428Z,83.46
2024-03-16T05:28:47.471Z,82.50
2024-03-16T05:31:14.429Z,79.85
2024-03-16T05:33:41.499Z,79.83
2024-03-16T05:36:11.098Z,77.44
2024-03-16T05:38:41.389Z,75.71
2024-03-16T05:41:08.383Z,74.59
2024-03-16T05:43:36.383Z,77.53
2024-03-16T05:46:03.651Z,76.28
2024-03-16T05:48:30.596Z,76.02
2024-03-16T05:50:57.721Z,76.10
2024-03-16T05:53:25.428Z,75.84
2024-03-16T05:55:52.512Z,76.05
2024-03-16T05:58:22.333Z,72.57
2024-03-16T06:00:50.038Z,70.36
2024-03-16T06:03:17.430Z,66.10
2024-03-16T06:05:49.097Z,65.42
2024-03-16T06:08:16.011Z,63.41
2024-03-16T06:10:43.416Z,61.85
2024-03-16T06:13:12.276Z,59.05
2024-03-16T06:15:41.231Z,58.79
2024-03-16T06:18:08.757Z,58.40
2024-03-16T06:20:35.818Z,56.72
2024-03-16T06:23:02.874Z,58.11
2024-03-16T06:25:30.938Z,56.42
2024-03-16T06:28:07.954Z,56.85
2024-03-16T06:30:35.828Z,58.91
2024-03-16T06:33:12.060Z,59.88
2024-03-16T06:35:43.000Z,62.08
2024-03-16T06:38:10.878Z,61.80
2024-03-16T06:40:38.401Z,62.43
2024-03-16T06:43:05.888Z,66.19
2024-03-16T06:45:33.074Z,66.83
2024-03-16T06:48:00.226Z,65.12
2024-03-16T06:50:27.476Z,64.79
2024-03-16T06:52:54.621Z,63.61
2024-03-16T06:55:22.004Z,63.84
2024-03-16T06:57:49.519Z,60.17
2024-03-16T07:02:57.448Z,56.58
2024-03-16T07:05:25.006Z,55.86
2024-03-16T07:07:52.309Z,54.24
2024-03-16T07:10:19.780Z,53.25
2024-03-16T07:12:48.536Z,51.67
2024-03-16T07:15:17.082Z,52.61
2024-03-16T07:17:44.736Z,51.73
2024-03-16T07:20:16.141Z,52.73
2024-03-16T07:22:43.456Z,52.83
2024-03-16T07:25:10.899Z,52.13
2024-03-16T07:27:47.297Z,51.63
2024-03-16T07:30:14.633Z,52.82
2024-03-16T07:32:41.769Z,51.22
2024-03-16T07:35:08.742Z,51.32
2024-03-16T07:37:36.066Z,53.45
2024-03-16T07:40:15.410Z,52.72
2024-03-16T07:42:48.013Z,53.30
2024-03-16T07:45:16.412Z,51.37
2024-03-16T07:47:43.954Z,50.49
2024-03-16T07:50:12.098Z,49.34
2024-03-16T07:52:42.066Z,48.88
2024-03-16T07:55:11.286Z,46.67
2024-03-16T07:57:38.396Z,47.12
2024-03-16T08:00:17.767Z,45.05
2024-03-16T08:02:45.241Z,45.70
2024-03-16T08:05:13.905Z,47.53
2024-03-16T08:07:46.030Z,44.36
2024-03-16T08:10:22.436Z,44.29
2024-03-16T08:12:49.652Z,44.32
2024-03-16T08:15:16.908Z,45.59
2024-03-16T08:17:54.110Z,43.39
2024-03-16T08:20:24.923Z,43.45
2024-03-16T08:22:56.024Z,44.69
2024-03-16T08:25:23.711Z,43.84
2024-03-16T08:27:51.049Z,43.48
2024-03-16T08:30:27.276Z,42.88
2024-03-16T08:32:56.778Z,43.43
2024-03-16T08:35:36.824Z,42.10
2024-03-16T08:38:22.348Z,41.81
2024-03-16T08:40:50.580Z,41.32
2024-03-16T08:43:18.178Z,41.44
2024-03-16T08:45:45.501Z,40.39
2024-03-16T08:48:12.964Z,42.94
2024-03-16T08:50:40.196Z,42.88
2024-03-16T08:53:08.132Z,41.56
2024-03-16T08:55:35.415Z,42.38
2024-03-16T08:58:27.295Z,41.91
2024-03-16T09:00:55.887Z,40.33
2024-03-16T09:03:24.465Z,40.00
2024-03-16T09:05:51.511Z,40.46
2024-03-16T09:08:18.849Z,43.07
2024-03-16T09:10:48.770Z,42.97
2024-03-16T09:13:16.683Z,43.89
2024-03-16T09:16:04.426Z,43.02
2024-03-16T09:18:31.877Z,41.51
2024-03-16T09:21:04.636Z,41.63
2024-03-16T09:23:34.148Z,41.30
2024-03-16T09:26:09.322Z,41.31
2024-03-16T09:28:36.317Z,41.42
2024-03-16T09:31:06.958Z,40.82
2024-03-16T09:33:34.078Z,40.90
2024-03-16T09:36:01.551Z,41.71
2024-03-16T09:38:28.549Z,41.48
2024-03-16T09:40:58.957Z,40.77
